createdAt,value
2019-05-29T00:02:20.867Z,96918.29
2019-05-29T00:04:50.858Z,96915.16
2019-05-29T00:07:20.890Z,96922.09
2019-05-29T00:09:50.829Z,96925.60
2019-05-29T00:12:21.326Z,96926.38
2019-05-29T00:14:50.867Z,96931.36
2019-05-29T00:17:20.863Z,96930.91
2019-05-29T00:19:50.895Z,96927.67
2019-05-29T00:22:21.115Z,96929.43
2019-05-29T00:24:50.925Z,96933.51
2019-05-29T00:27:21.217Z,96933.28
2019-05-29T00:29:51.239Z,96937.06
2019-05-29T00:32:21.275Z,96936.66
2019-05-29T00:34:51.722Z,96930.47
2019-05-29T00:37:21.298Z,96931.64
2019-05-29T00:39:51.338Z,96933.34
2019-05-29T00:42:21.388Z,96938.13
2019-05-29T00:44:51.456Z,96936.39
2019-05-29T00:47:21.360Z,96935.91
2019-05-29T00:49:51.378Z,96932.19
2019-05-29T00:52:21.333Z,96939.20
2019-05-29T00:54:51.579Z,96936.32
2019-05-29T00:57:21.348Z,96937.67
2019-05-29T00:59:51.466Z,96945.80
2019-05-29T01:02:21.461Z,96941.52
2019-05-29T01:04:51.432Z,96943.02
2019-05-29T01:07:21.539Z,96944.36
2019-05-29T01:09:51.623Z,96951.66
2019-05-29T01:12:21.551Z,96946.47
2019-05-29T01:14:51.559Z,96950.08
2019-05-29T01:17:21.917Z,96942.81
2019-05-29T01:19:51.765Z,96949.09
2019-05-29T01:22:22.448Z,96949.04
2019-05-29T01:24:51.793Z,96945.11
2019-05-29T01:27:23.119Z,96948.89
2019-05-29T01:29:52.705Z,96945.63
2019-05-29T01:32:22.257Z,96946.09
2019-05-29T01:34:52.309Z,96939.28
2019-05-29T01:37:22.384Z,96943.20
2019-05-29T01:39:52.684Z,96943.36
2019-05-29T01:42:23.488Z,96941.23
2019-05-29T01:45:06.506Z,96937.08
2019-05-29T01:47:24.033Z,96931.94
2019-05-29T01:49:53.416Z,96933.16
2019-05-29T01:52:23.790Z,96933.66
2019-05-29T01:54:53.296Z,96935.89
2019-05-29T01:57:23.772Z,96938.43
2019-05-29T01:59:53.138Z,96940.11
2019-05-29T02:02:22.541Z,96933.88
2019-05-29T02:04:52.452Z,96935.84
2019-05-29T02:07:23.996Z,96941.08
2019-05-29T02:09:53.467Z,96938.84
2019-05-29T02:12:22.954Z,96941.70
2019-05-29T02:14:52.503Z,96942.47
2019-05-29T02:17:22.464Z,96940.22
2019-05-29T02:19:53.133Z,96940.42
2019-05-29T02:22:23.092Z,96939.62
2019-05-29T02:24:52.578Z,96942.55
2019-05-29T02:27:23.508Z,96941.65
2019-05-29T02:29:52.851Z,96950.36
2019-05-29T02:32:23.597Z,96936.36
2019-05-29T02:34:52.997Z,96937.98
2019-05-29T02:37:24.433Z,96937.69
2019-05-29T02:39:53.890Z,96935.17
2019-05-29T02:42:24.995Z,96939.83
2019-05-29T02:44:54.602Z,96942.26
2019-05-29T02:47:25.807Z,96941.87
2019-05-29T02:49:55.070Z,96952.77
2019-05-29T02:52:26.137Z,96953.39
2019-05-29T02:54:55.698Z,96964.62
2019-05-29T02:57:26.761Z,96958.41
2019-05-29T02:59:56.350Z,96963.28
2019-05-29T03:02:27.780Z,96963.91
2019-05-29T03:04:56.829Z,96971.00
2019-05-29T03:07:26.531Z,96973.62
2019-05-29T03:09:56.834Z,96966.23
2019-05-29T03:12:27.107Z,96973.14
2019-05-29T03:14:56.586Z,96976.02
2019-05-29T03:17:27.718Z,96980.95
2019-05-29T03:19:57.067Z,96976.66
2019-05-29T03:22:26.929Z,96978.55
2019-05-29T03:24:57.549Z,96988.88
2019-05-29T03:27:27.847Z,96985.03
2019-05-29T03:29:57.204Z,96997.01
2019-05-29T03:32:28.321Z,97002.80
2019-05-29T03:34:57.676Z,97001.48
2019-05-29T03:37:28.236Z,96999.00
2019-05-29T03:39:58.623Z,97004.54
2019-05-29T03:42:28.339Z,97005.80
2019-05-29T03:44:57.755Z,97007.02
2019-05-29T03:47:28.666Z,97009.38
2019-05-29T03:49:59.040Z,97016.85
2019-05-29T03:52:30.080Z,97020.64
2019-05-29T03:54:59.612Z,97021.32
2019-05-29T03:57:29.807Z,97018.49
2019-05-29T04:00:00.075Z,97029.29
2019-05-29T04:02:31.248Z,97024.70
2019-05-29T04:05:00.591Z,97029.30
2019-05-29T04:07:31.402Z,97032.33
2019-05-29T04:10:00.948Z,97033.73
2019-05-29T04:12:31.405Z,97037.73
2019-05-29T04:15:00.861Z,97042.83
2019-05-29T04:17:32.276Z,97042.16
2019-05-29T04:20:02.713Z,97052.84
2019-05-29T04:22:36.942Z,97051.87
2019-05-29T04:25:07.372Z,97056.05
2019-05-29T04:27:39.846Z,97048.24
2019-05-29T04:30:09.458Z,97051.83
2019-05-29T04:32:38.884Z,97049.55
2019-05-29T04:35:08.875Z,97059.94
2019-05-29T04:37:39.830Z,97052.37
2019-05-29T04:40:09.878Z,97053.55
2019-05-29T04:42:40.148Z,97059.89
2019-05-29T04:45:10.140Z,97061.78
2019-05-29T04:47:39.907Z,97068.63
2019-05-29T04:50:09.704Z,97075.29
2019-05-29T04:52:40.399Z,97069.11
2019-05-29T04:55:09.930Z,97073.71
2019-05-29T04:57:39.529Z,97080.40
2019-05-29T05:00:09.138Z,97078.61
2019-05-29T05:02:39.462Z,97082.54
2019-05-29T05:05:09.412Z,97084.14
2019-05-29T05:07:39.867Z,97088.98
2019-05-29T05:10:09.898Z,97092.44
2019-05-29T05:12:40.533Z,97092.64
2019-05-29T05:15:10.332Z,97103.52
2019-05-29T05:17:40.121Z,97109.88
2019-05-29T05:20:09.923Z,97110.66
2019-05-29T05:22:40.922Z,97115.34
2019-05-29T05:25:10.688Z,97111.80
2019-05-29T05:27:40.683Z,97119.56
2019-05-29T05:30:10.472Z,97118.30
2019-05-29T05:32:41.131Z,97117.84
2019-05-29T05:35:14.245Z,97127.61
2019-05-29T05:37:42.095Z,97125.61
2019-05-29T05:40:11.722Z,97132.08
2019-05-29T05:42:41.310Z,97124.42
2019-05-29T05:45:11.242Z,97130.09
2019-05-29T05:47:53.529Z,97130.00
2019-05-29T05:50:12.099Z,97131.98
2019-05-29T05:52:41.720Z,97128.73
2019-05-29T05:55:11.424Z,97134.17
2019-05-29T05:57:41.861Z,97133.61
2019-05-29T06:00:11.880Z,97140.33
2019-05-29T06:02:42.124Z,97138.59
2019-05-29T06:05:11.869Z,97142.81
2019-05-29T06:07:42.482Z,97140.81
2019-05-29T06:10:12.239Z,97139.44
2019-05-29T06:12:42.884Z,97135.52
2019-05-29T06:15:13.257Z,97143.84
2019-05-29T06:18:00.586Z,97140.73
2019-05-29T06:20:13.933Z,97143.37
2019-05-29T06:22:43.721Z,97147.00
2019-05-29T06:25:13.548Z,97150.91
2019-05-29T06:27:43.336Z,97155.48
2019-05-29T06:30:13.019Z,97159.37
2019-05-29T06:32:43.532Z,97159.77
2019-05-29T06:35:13.419Z,97162.42
2019-05-29T06:37:43.773Z,97167.95
2019-05-29T06:40:14.887Z,97167.27
2019-05-29T06:42:44.412Z,97173.73
2019-05-29T06:45:15.708Z,97174.89
2019-05-29T06:47:44.640Z,97175.86
2019-05-29T06:50:14.140Z,97176.97
2019-05-29T06:52:43.768Z,97177.13
2019-05-29T06:55:13.211Z,97176.52
2019-05-29T06:57:43.104Z,97180.78
2019-05-29T07:00:13.954Z,97183.03
2019-05-29T07:02:44.752Z,97186.61
2019-05-29T07:05:14.417Z,97188.29
2019-05-29T07:07:44.504Z,97186.70
2019-05-29T07:10:14.238Z,97199.78
2019-05-29T07:12:44.523Z,97201.22
2019-05-29T07:15:14.433Z,97200.59
2019-05-29T07:17:44.484Z,97212.42
2019-05-29T07:20:14.199Z,97212.85
2019-05-29T07:22:44.949Z,97212.42
2019-05-29T07:25:14.707Z,97215.26
2019-05-29T07:27:45.132Z,97217.29
2019-05-29T07:30:15.302Z,97213.81
2019-05-29T07:32:50.101Z,97211.59
2019-05-29T07:35:16.197Z,97211.77
2019-05-29T07:37:46.014Z,97212.27
2019-05-29T07:40:16.988Z,97219.14
2019-05-29T07:42:53.391Z,97214.05
2019-05-29T07:45:17.876Z,97221.51
2019-05-29T07:47:48.575Z,97217.13
2019-05-29T07:50:18.414Z,97226.11
2019-05-29T07:52:49.089Z,97228.83
2019-05-29T07:55:18.992Z,97227.77
2019-05-29T07:57:48.951Z,97236.67
2019-05-29T08:00:19.662Z,97236.27
2019-05-29T08:02:49.517Z,97237.11
2019-05-29T08:05:19.953Z,97245.72
2019-05-29T08:07:49.748Z,97247.04
2019-05-29T08:10:19.360Z,97250.33
2019-05-29T08:12:54.457Z,97252.52
2019-05-29T08:15:19.977Z,97257.05
2019-05-29T08:17:50.261Z,97254.94
2019-05-29T08:20:20.332Z,97260.66
2019-05-29T08:22:50.517Z,97258.94
2019-05-29T08:25:20.171Z,97262.33
2019-05-29T08:27:50.809Z,97265.92
2019-05-29T08:30:21.718Z,97259.66
2019-05-29T08:32:52.121Z,97258.83
2019-05-29T08:35:21.522Z,97260.62
2019-05-29T08:37:51.176Z,97266.42
2019-05-29T08:40:21.400Z,97261.26
2019-05-29T08:42:51.502Z,97265.37
2019-05-29T08:45:21.716Z,97269.59
2019-05-29T08:47:51.992Z,97273.53
2019-05-29T08:50:22.056Z,97279.23
2019-05-29T08:52:52.450Z,97273.73
2019-05-29T08:55:22.510Z,97276.38
2019-05-29T08:57:52.932Z,97284.38
2019-05-29T09:00:23.770Z,97287.05
2019-05-29T09:02:53.483Z,97285.86
2019-05-29T09:05:23.597Z,97290.09
2019-05-29T09:07:54.458Z,97284.11
2019-05-29T09:10:24.095Z,97292.25
2019-05-29T09:13:03.949Z,97289.28
2019-05-29T09:15:25.534Z,97289.88
2019-05-29T09:17:54.917Z,97288.30
2019-05-29T09:20:37.078Z,97285.36
2019-05-29T09:22:56.257Z,97298.17
2019-05-29T09:25:25.792Z,97295.70
2019-05-29T09:27:56.117Z,97303.84
2019-05-29T09:30:26.238Z,97303.84
2019-05-29T09:32:56.566Z,97303.03
2019-05-29T09:35:26.752Z,97312.46
2019-05-29T09:37:57.033Z,97311.44
2019-05-29T09:40:27.318Z,97312.46
2019-05-29T09:42:57.560Z,97312.58
2019-05-29T09:45:27.746Z,97312.28
2019-05-29T09:47:58.165Z,97313.21
2019-05-29T09:50:46.513Z,97318.54
2019-05-29T09:53:00.810Z,97320.19
2019-05-29T09:55:30.677Z,97321.78
2019-05-29T09:58:00.800Z,97321.95
2019-05-29T10:00:31.252Z,97319.30
2019-05-29T10:03:01.407Z,97324.44
2019-05-29T10:05:31.762Z,97323.59
2019-05-29T10:08:02.365Z,97330.09
2019-05-29T10:10:32.547Z,97330.11
2019-05-29T10:13:02.877Z,97322.98
2019-05-29T10:15:33.117Z,97332.74
2019-05-29T10:18:03.100Z,97332.03
2019-05-29T10:20:33.570Z,97328.56
2019-05-29T10:23:03.129Z,97329.77
2019-05-29T10:25:32.558Z,97325.17
2019-05-29T10:28:05.841Z,97324.37
2019-05-29T10:30:33.374Z,97327.70
2019-05-29T10:33:03.801Z,97329.66
2019-05-29T10:35:34.253Z,97323.17
2019-05-29T10:38:04.491Z,97331.60
2019-05-29T10:40:33.981Z,97335.72
2019-05-29T10:43:03.880Z,97333.69
2019-05-29T10:45:34.105Z,97329.23
2019-05-29T10:48:05.187Z,97323.02
2019-05-29T10:50:34.579Z,97324.70
2019-05-29T10:53:04.831Z,97324.21
2019-05-29T10:55:34.860Z,97329.91
2019-05-29T10:58:05.302Z,97332.00
2019-05-29T11:00:38.734Z,97330.63
2019-05-29T11:03:06.467Z,97328.02
2019-05-29T11:05:35.858Z,97326.56
2019-05-29T11:08:06.182Z,97338.06
2019-05-29T11:10:36.579Z,97340.29
2019-05-29T11:13:06.723Z,97338.39
2019-05-29T11:15:36.975Z,97335.13
2019-05-29T11:18:07.220Z,97339.49
2019-05-29T11:20:37.369Z,97345.81
2019-05-29T11:23:07.736Z,97346.67
2019-05-29T11:25:37.882Z,97344.59
2019-05-29T11:28:08.337Z,97337.64
2019-05-29T11:30:38.430Z,97341.89
2019-05-29T11:33:08.828Z,97350.08
2019-05-29T11:35:54.862Z,97343.28
2019-05-29T11:38:09.973Z,97341.61
2019-05-29T11:40:39.677Z,97342.70
2019-05-29T11:43:09.736Z,97343.00
2019-05-29T11:45:39.984Z,97342.67
2019-05-29T11:48:10.409Z,97342.00
2019-05-29T11:50:40.488Z,97344.94
2019-05-29T11:53:10.699Z,97341.57
2019-05-29T11:55:40.900Z,97356.08
2019-05-29T11:58:11.151Z,97345.02
2019-05-29T12:00:41.485Z,97351.31
2019-05-29T12:03:11.937Z,97348.98
2019-05-29T12:05:41.871Z,97351.70
2019-05-29T12:08:12.264Z,97353.70
2019-05-29T12:10:42.558Z,97352.79
2019-05-29T12:13:12.824Z,97355.60
2019-05-29T12:15:42.934Z,97351.38
2019-05-29T12:18:23.705Z,97345.22
2019-05-29T12:20:44.564Z,97347.97
2019-05-29T12:23:26.008Z,97350.41
2019-05-29T12:25:45.110Z,97350.26
2019-05-29T12:28:14.493Z,97352.72
2019-05-29T12:30:44.556Z,97352.83
2019-05-29T12:33:14.978Z,97356.36
2019-05-29T12:35:45.021Z,97355.39
2019-05-29T12:38:15.285Z,97364.48
2019-05-29T12:40:45.497Z,97368.86
2019-05-29T12:43:26.671Z,97362.91
2019-05-29T12:45:46.849Z,97361.06
2019-05-29T12:48:17.570Z,97364.78
2019-05-29T12:50:47.101Z,97360.04
2019-05-29T12:53:29.820Z,97364.66
2019-05-29T12:55:47.944Z,97364.97
2019-05-29T12:58:17.326Z,97369.66
2019-05-29T13:00:47.363Z,97377.02
2019-05-29T13:03:17.715Z,97369.40
2019-05-29T13:05:47.876Z,97378.55
2019-05-29T13:08:18.257Z,97376.64
2019-05-29T13:10:49.537Z,97373.02
2019-05-29T13:13:18.937Z,97370.98
2019-05-29T13:15:48.903Z,97375.99
2019-05-29T13:18:19.185Z,97379.60
2019-05-29T13:20:49.408Z,97378.06
2019-05-29T13:23:19.727Z,97382.28
2019-05-29T13:25:49.932Z,97374.44
2019-05-29T13:28:20.201Z,97381.46
2019-05-29T13:30:50.400Z,97384.64
2019-05-29T13:33:20.853Z,97386.33
2019-05-29T13:35:50.904Z,97388.31
2019-05-29T13:38:21.120Z,97390.35
2019-05-29T13:40:51.617Z,97394.80
2019-05-29T13:43:21.658Z,97397.28
2019-05-29T13:45:51.904Z,97400.45
2019-05-29T13:48:23.500Z,97398.92
2019-05-29T13:50:52.994Z,97397.00
2019-05-29T13:53:22.500Z,97406.83
2019-05-29T13:55:52.643Z,97406.33
2019-05-29T13:58:22.966Z,97408.66
2019-05-29T14:00:53.864Z,97408.78
2019-05-29T14:03:23.441Z,97411.38
2019-05-29T14:05:53.650Z,97423.84
2019-05-29T14:08:24.210Z,97421.95
2019-05-29T14:10:54.185Z,97434.27
2019-05-29T14:13:24.553Z,97427.94
2019-05-29T14:15:54.714Z,97435.10
2019-05-29T14:18:24.976Z,97439.75
2019-05-29T14:20:55.187Z,97442.41
2019-05-29T14:23:25.606Z,97441.34
2019-05-29T14:25:55.914Z,97447.35
2019-05-29T14:28:26.180Z,97442.56
2019-05-29T14:30:56.225Z,97449.59
2019-05-29T14:33:26.631Z,97453.49
2019-05-29T14:35:56.831Z,97461.27
2019-05-29T14:38:27.243Z,97457.88
2019-05-29T14:40:57.306Z,97455.31
2019-05-29T14:43:27.634Z,97453.35
2019-05-29T14:45:57.937Z,97449.77
2019-05-29T14:48:28.237Z,97454.52
2019-05-29T14:50:58.407Z,97456.03
2019-05-29T14:53:28.869Z,97458.17
2019-05-29T14:55:58.923Z,97463.87
2019-05-29T14:58:29.333Z,97463.70
2019-05-29T15:00:59.405Z,97467.16
2019-05-29T15:03:29.743Z,97464.20
2019-05-29T15:05:59.909Z,97471.14
2019-05-29T15:08:30.222Z,97474.77
2019-05-29T15:11:00.429Z,97470.94
2019-05-29T15:13:30.752Z,97470.75
2019-05-29T15:16:01.028Z,97477.19
2019-05-29T15:18:31.348Z,97482.89
2019-05-29T15:21:01.494Z,97489.38
2019-05-29T15:23:31.938Z,97488.22
2019-05-29T15:26:01.967Z,97496.09
2019-05-29T15:28:32.353Z,97506.48
2019-05-29T15:31:02.816Z,97505.30
2019-05-29T15:33:32.758Z,97505.61
2019-05-29T15:36:02.989Z,97516.03
2019-05-29T15:38:33.331Z,97511.31
2019-05-29T15:41:03.467Z,97515.60
2019-05-29T15:43:33.851Z,97518.83
2019-05-29T15:46:04.096Z,97513.73
2019-05-29T15:48:34.307Z,97517.13
2019-05-29T15:51:04.686Z,97522.88
2019-05-29T15:53:34.865Z,97527.61
2019-05-29T15:56:18.036Z,97519.14
2019-05-29T15:58:37.026Z,97530.99
2019-05-29T16:01:07.637Z,97536.40
2019-05-29T16:03:37.209Z,97537.05
2019-05-29T16:06:07.695Z,97537.72
2019-05-29T16:08:37.210Z,97542.28
2019-05-29T16:11:08.600Z,97548.20
2019-05-29T16:13:38.052Z,97544.45
2019-05-29T16:16:07.449Z,97542.47
2019-05-29T16:18:38.400Z,97546.51
2019-05-29T16:21:07.786Z,97550.59
2019-05-29T16:23:37.445Z,97553.78
2019-05-29T16:26:07.488Z,97556.30
2019-05-29T16:28:38.841Z,97559.02
2019-05-29T16:31:08.224Z,97562.05
2019-05-29T16:33:37.708Z,97568.48
2019-05-29T16:36:07.657Z,97568.47
2019-05-29T16:38:37.565Z,97570.52
2019-05-29T16:41:07.659Z,97573.70
2019-05-29T16:43:37.718Z,97568.45
2019-05-29T16:46:07.762Z,97569.09
2019-05-29T16:48:38.771Z,97566.62
2019-05-29T16:51:08.922Z,97564.25
2019-05-29T16:53:39.320Z,97567.41
2019-05-29T16:56:08.856Z,97571.92
2019-05-29T16:58:38.909Z,97568.56
2019-05-29T17:01:09.120Z,97561.35
2019-05-29T17:03:39.570Z,97563.42
2019-05-29T17:06:09.694Z,97564.72
2019-05-29T17:08:39.889Z,97567.11
2019-05-29T17:11:09.806Z,97577.55
2019-05-29T17:13:39.542Z,97575.16
2019-05-29T17:16:09.572Z,97579.61
2019-05-29T17:18:40.086Z,97576.89
2019-05-29T17:21:10.133Z,97580.95
2019-05-29T17:23:39.513Z,97582.97
2019-05-29T17:26:11.015Z,97589.77
2019-05-29T17:28:41.075Z,97595.88
2019-05-29T17:31:11.109Z,97587.05
2019-05-29T17:33:41.390Z,97597.52
2019-05-29T17:36:11.631Z,97603.31
2019-05-29T17:38:42.170Z,97605.90
2019-05-29T17:41:12.363Z,97611.92
2019-05-29T17:43:42.717Z,97620.64
2019-05-29T17:46:12.655Z,97615.94
2019-05-29T17:48:42.039Z,97629.03
2019-05-29T17:51:11.566Z,97631.67
2019-05-29T17:53:41.135Z,97635.52
2019-05-29T17:56:25.321Z,97640.53
2019-05-29T17:58:41.775Z,97643.17
2019-05-29T18:01:11.176Z,97644.27
2019-05-29T18:03:40.657Z,97640.77
2019-05-29T18:06:10.110Z,97646.66
2019-05-29T18:08:40.469Z,97647.30
2019-05-29T18:11:09.999Z,97649.55
2019-05-29T18:13:39.448Z,97655.02
2019-05-29T18:16:08.925Z,97667.09
2019-05-29T18:18:38.891Z,97662.33
2019-05-29T18:21:09.038Z,97661.05
2019-05-29T18:23:39.202Z,97662.13
2019-05-29T18:26:09.029Z,97663.81
2019-05-29T18:28:39.048Z,97662.07
2019-05-29T18:31:09.637Z,97671.09
2019-05-29T18:33:39.263Z,97680.27
2019-05-29T18:36:09.232Z,97685.78
2019-05-29T18:38:40.103Z,97680.75
2019-05-29T18:41:09.903Z,97685.34
2019-05-29T18:43:39.443Z,97689.19
2019-05-29T18:46:09.395Z,97694.73
2019-05-29T18:48:39.427Z,97698.38
2019-05-29T18:51:09.539Z,97697.04
2019-05-29T18:53:39.645Z,97699.92
2019-05-29T18:56:09.613Z,97702.06
2019-05-29T18:58:39.678Z,97707.72
2019-05-29T19:01:10.457Z,97712.32
2019-05-29T19:03:40.629Z,97715.15
2019-05-29T19:06:11.285Z,97713.18
2019-05-29T19:08:40.694Z,97713.65
2019-05-29T19:11:10.621Z,97726.65
2019-05-29T19:13:40.637Z,97730.33
2019-05-29T19:16:10.558Z,97731.01
2019-05-29T19:18:40.578Z,97737.09
2019-05-29T19:21:10.744Z,97741.03
2019-05-29T19:23:40.736Z,97731.91
2019-05-29T19:26:10.896Z,97738.72
2019-05-29T19:28:41.359Z,97736.39
2019-05-29T19:31:10.845Z,97746.69
2019-05-29T19:33:40.900Z,97749.09
2019-05-29T19:36:10.879Z,97758.84
2019-05-29T19:38:40.967Z,97766.64
2019-05-29T19:41:11.009Z,97763.05
2019-05-29T19:43:41.174Z,97763.69
2019-05-29T19:46:11.112Z,97765.38
2019-05-29T19:48:41.097Z,97772.40
2019-05-29T19:51:11.240Z,97784.63
2019-05-29T19:53:41.583Z,97784.36
2019-05-29T19:56:11.231Z,97783.03
2019-05-29T19:58:41.189Z,97788.97
2019-05-29T20:01:11.273Z,97795.07
2019-05-29T20:03:41.278Z,97797.02
2019-05-29T20:06:11.735Z,97809.36
2019-05-29T20:08:41.322Z,97807.33
2019-05-29T20:11:11.461Z,97807.33
2019-05-29T20:13:41.452Z,97802.62
2019-05-29T20:16:11.884Z,97806.92
2019-05-29T20:18:42.336Z,97812.61
2019-05-29T20:21:11.723Z,97800.56
2019-05-29T20:23:41.830Z,97803.73
2019-05-29T20:26:11.560Z,97806.16
2019-05-29T20:28:42.557Z,97812.43
2019-05-29T20:31:12.340Z,97814.13
2019-05-29T20:33:42.742Z,97824.92
2019-05-29T20:36:12.136Z,97827.90
2019-05-29T20:38:41.726Z,97825.30
2019-05-29T20:41:11.761Z,97825.77
2019-05-29T20:43:41.943Z,97830.30
2019-05-29T20:46:11.833Z,97830.66
2019-05-29T20:48:42.747Z,97837.78
2019-05-29T20:51:12.554Z,97838.81
2019-05-29T20:53:42.137Z,97843.23
2019-05-29T20:56:11.924Z,97846.03
2019-05-29T20:58:43.034Z,97850.72
2019-05-29T21:01:12.413Z,97846.58
2019-05-29T21:03:42.573Z,97841.86
2019-05-29T21:06:12.257Z,97858.38
2019-05-29T21:08:43.348Z,97848.77
2019-05-29T21:11:12.812Z,97856.41
2019-05-29T21:13:43.577Z,97848.38
2019-05-29T21:16:13.344Z,97854.16
2019-05-29T21:18:44.047Z,97856.63
2019-05-29T21:21:13.510Z,97864.27
2019-05-29T21:23:42.898Z,97865.70
2019-05-29T21:26:12.441Z,97862.74
2019-05-29T21:28:47.017Z,97863.92
2019-05-29T21:31:13.581Z,97862.59
2019-05-29T21:33:46.951Z,97867.45
2019-05-29T21:36:14.126Z,97865.93
2019-05-29T21:38:44.316Z,97871.45
2019-05-29T21:41:13.663Z,97867.30
2019-05-29T21:43:43.040Z,97873.78
2019-05-29T21:46:12.971Z,97872.84
2019-05-29T21:48:43.356Z,97873.09
2019-05-29T21:51:12.844Z,97869.97
2019-05-29T21:53:43.427Z,97871.52
2019-05-29T21:56:13.005Z,97876.39
2019-05-29T21:58:59.924Z,97882.65
2019-05-29T22:01:14.985Z,97879.67
2019-05-29T22:03:44.590Z,97883.85
2019-05-29T22:06:14.421Z,97891.23
2019-05-29T22:08:44.966Z,97883.20
2019-05-29T22:11:14.632Z,97887.00
2019-05-29T22:13:46.263Z,97887.07
2019-05-29T22:16:15.426Z,97884.91
2019-05-29T22:18:44.786Z,97882.90
2019-05-29T22:21:14.326Z,97885.58
2019-05-29T22:23:43.717Z,97886.48
2019-05-29T22:26:13.307Z,97893.74
2019-05-29T22:28:43.348Z,97894.23
2019-05-29T22:31:12.764Z,97895.48
2019-05-29T22:33:42.138Z,97897.07
2019-05-29T22:36:12.072Z,97900.56
2019-05-29T22:38:41.488Z,97893.78
2019-05-29T22:41:10.980Z,97902.46
2019-05-29T22:43:40.539Z,97901.77
2019-05-29T22:46:09.957Z,97912.09
2019-05-29T22:48:39.417Z,97910.44
2019-05-29T22:51:08.895Z,97911.48
2019-05-29T22:53:38.377Z,97910.80
2019-05-29T22:56:08.151Z,97911.06
2019-05-29T22:58:37.650Z,97912.60
2019-05-29T23:01:07.105Z,97909.03
2019-05-29T23:03:36.636Z,97909.95
2019-05-29T23:06:06.077Z,97909.50
2019-05-29T23:08:35.447Z,97912.48
2019-05-29T23:11:04.996Z,97913.08
2019-05-29T23:13:34.413Z,97908.48
2019-05-29T23:16:03.940Z,97916.19
2019-05-29T23:18:33.389Z,97911.20
2019-05-29T23:21:02.864Z,97910.37
2019-05-29T23:23:32.254Z,97913.32
2019-05-29T23:26:02.997Z,97914.14
2019-05-29T23:28:32.868Z,97921.52
2019-05-29T23:31:03.047Z,97917.75
2019-05-29T23:33:32.504Z,97921.89
2019-05-29T23:36:03.170Z,97920.28
2019-05-29T23:38:32.640Z,97922.21
2019-05-29T23:41:02.054Z,97921.98
2019-05-29T23:43:31.423Z,97927.11
2019-05-29T23:46:02.444Z,97924.27
2019-05-29T23:48:32.220Z,97922.61
2019-05-29T23:51:01.780Z,97926.88
2019-05-29T23:53:31.160Z,97931.62
2019-05-29T23:56:01.792Z,97937.09
2019-05-29T23:58:31.247Z,97929.52
